createdAt,value
2023-04-15T00:01:55.277Z,7.55
2023-04-15T00:32:51.470Z,8.03
2023-04-15T00:35:18.360Z,8.33
2023-04-15T00:37:46.338Z,8.29
2023-04-15T00:40:14.031Z,8.08
2023-04-15T00:42:41.172Z,8.07
2023-04-15T00:45:08.921Z,8.19
2023-04-15T00:48:34.858Z,8.49
2023-04-15T00:51:38.658Z,8.60
2023-04-15T00:54:06.024Z,8.79
2023-04-15T00:56:36.304Z,8.92
2023-04-15T00:59:03.086Z,8.49
2023-04-15T01:01:30.221Z,8.75
2023-04-15T01:04:26.260Z,8.93
2023-04-15T01:53:15.914Z,9.01
2023-04-15T01:55:54.921Z,9.15
2023-04-15T02:02:40.128Z,9.28
2023-04-15T02:05:07.111Z,9.31
2023-04-15T02:07:35.033Z,9.38
2023-04-15T02:10:01.904Z,9.30
2023-04-15T02:12:28.454Z,9.44
2023-04-15T02:14:55.891Z,9.11
2023-04-15T02:42:16.730Z,9.09
2023-04-15T02:44:43.626Z,8.70
2023-04-15T03:22:08.024Z,8.53
2023-04-15T03:24:35.594Z,8.64
2023-04-15T03:27:02.546Z,9.00
2023-04-15T03:29:29.116Z,9.23
2023-04-15T03:36:10.949Z,8.78
2023-04-15T03:38:37.536Z,8.89
2023-04-15T03:41:04.171Z,9.24
2023-04-15T03:43:30.888Z,9.40
2023-04-15T03:46:25.803Z,9.46
2023-04-15T03:48:56.854Z,9.60
2023-04-15T03:51:23.443Z,9.40
2023-04-15T03:53:53.878Z,9.47
2023-04-15T03:56:20.599Z,9.57
2023-04-15T03:58:47.183Z,9.59
2023-04-15T04:04:02.983Z,9.16
2023-04-15T04:06:29.709Z,9.46
2023-04-15T04:08:56.758Z,9.53
2023-04-15T04:11:23.360Z,9.61
2023-04-15T04:13:49.943Z,9.40
2023-04-15T04:20:34.618Z,9.45
2023-04-15T04:23:01.307Z,9.59
2023-04-15T04:25:28.225Z,9.72
2023-04-15T04:27:54.773Z,9.57
2023-04-15T04:30:21.395Z,9.42
2023-04-15T04:33:12.112Z,9.64
2023-04-15T04:35:41.313Z,9.24
2023-04-15T04:38:09.080Z,9.59
2023-04-15T04:40:36.929Z,9.67
2023-04-15T04:43:03.683Z,9.87
2023-04-15T04:46:04.093Z,9.92
2023-04-15T04:48:30.841Z,9.76
2023-04-15T04:50:57.804Z,9.84
2023-04-15T04:53:28.168Z,9.89
2023-04-15T05:00:24.285Z,10.09
2023-04-15T05:02:51.136Z,9.94
2023-04-15T05:05:17.822Z,9.84
2023-04-15T05:07:44.417Z,9.80
2023-04-15T05:10:11.467Z,10.03
2023-04-15T05:12:38.692Z,10.21
2023-04-15T05:15:06.715Z,10.28
2023-04-15T05:17:35.323Z,10.41
2023-04-15T05:20:03.305Z,10.12
2023-04-15T05:22:29.948Z,10.29
2023-04-15T05:25:03.990Z,10.38
2023-04-15T05:27:31.081Z,9.91
2023-04-15T05:29:57.676Z,9.96
2023-04-15T05:32:24.339Z,10.10
2023-04-15T05:34:51.366Z,9.91
2023-04-15T05:37:18.084Z,10.11
2023-04-15T05:39:44.645Z,10.15
2023-04-15T05:42:11.481Z,9.86
2023-04-15T05:44:38.146Z,10.35
2023-04-15T05:49:39.934Z,10.01
2023-04-15T05:52:06.568Z,10.14
2023-04-15T05:54:33.158Z,10.44
2023-04-15T05:56:59.740Z,10.45
2023-04-15T05:59:27.090Z,10.30
2023-04-15T06:02:38.174Z,10.51
2023-04-15T06:05:40.992Z,10.02
2023-04-15T06:08:08.387Z,9.93
2023-04-15T06:10:50.018Z,10.29
2023-04-15T06:13:26.163Z,10.25
2023-04-15T06:15:53.628Z,10.10
2023-04-15T06:18:41.912Z,10.57
2023-04-15T06:21:08.548Z,10.22
2023-04-15T06:23:36.516Z,10.02
2023-04-15T06:26:03.772Z,10.16
2023-04-15T06:28:30.544Z,10.97
2023-04-15T06:31:15.391Z,12.56
2023-04-15T06:33:41.980Z,12.96
2023-04-15T06:36:08.574Z,12.56
2023-04-15T06:38:35.448Z,12.73
2023-04-15T06:41:03.046Z,12.72
2023-04-15T06:43:30.079Z,12.69
2023-04-15T06:45:57.358Z,12.46
2023-04-15T06:48:24.428Z,12.35
2023-04-15T06:50:51.095Z,11.99
2023-04-15T06:53:17.704Z,11.90
2023-04-15T06:55:44.287Z,12.14
2023-04-15T06:58:10.877Z,12.34
2023-04-15T07:00:39.217Z,12.27
2023-04-15T07:03:05.919Z,12.36
2023-04-15T07:05:32.584Z,12.46
2023-04-15T07:07:59.102Z,12.61
2023-04-15T07:10:26.114Z,12.34
2023-04-15T07:13:08.882Z,12.50
2023-04-15T07:15:35.787Z,11.80
2023-04-15T07:18:20.940Z,11.55
2023-04-15T07:20:48.065Z,12.23
2023-04-15T07:23:14.698Z,12.22
2023-04-15T07:25:41.318Z,12.51
2023-04-15T07:28:07.948Z,12.40
2023-04-15T07:30:34.607Z,12.09
2023-04-15T07:33:02.821Z,12.34
2023-04-15T07:35:29.851Z,12.49
2023-04-15T07:37:56.471Z,12.07
2023-04-15T07:40:23.072Z,12.42
2023-04-15T07:42:50.040Z,12.71
2023-04-15T07:45:17.007Z,12.30
2023-04-15T07:47:43.732Z,12.33
2023-04-15T07:50:13.562Z,11.73
2023-04-15T07:52:40.293Z,11.98
2023-04-15T07:55:11.519Z,12.10
2023-04-15T07:57:38.325Z,11.89
2023-04-15T08:00:06.081Z,12.55
2023-04-15T08:02:32.821Z,12.89
2023-04-15T08:05:00.009Z,13.28
2023-04-15T08:07:27.392Z,13.00
2023-04-15T08:09:53.916Z,12.47
2023-04-15T08:12:20.681Z,12.76
2023-04-15T08:14:47.422Z,13.00
2023-04-15T08:17:21.772Z,12.95
2023-04-15T08:19:51.513Z,12.94
2023-04-15T08:22:19.257Z,12.85
2023-04-15T08:24:46.798Z,11.78
2023-04-15T08:27:13.631Z,11.86
2023-04-15T08:29:40.770Z,11.57
2023-04-15T08:32:07.854Z,11.82
2023-04-15T08:34:34.953Z,12.23
2023-04-15T08:37:01.667Z,12.59
2023-04-15T08:39:28.409Z,13.05
2023-04-15T08:41:55.091Z,13.08
2023-04-15T08:44:24.169Z,13.21
2023-04-15T08:46:52.527Z,13.15
2023-04-15T08:49:22.017Z,13.30
2023-04-15T08:51:49.642Z,13.38
2023-04-15T08:54:16.416Z,13.53
2023-04-15T08:56:43.322Z,13.19
2023-04-15T09:01:43.032Z,12.78
2023-04-15T09:04:12.594Z,12.80
2023-04-15T09:06:40.441Z,13.39
2023-04-15T09:09:07.194Z,13.51
2023-04-15T09:11:34.501Z,13.29
2023-04-15T09:14:01.067Z,12.82
2023-04-15T09:16:28.370Z,12.52
2023-04-15T09:18:55.082Z,11.99
2023-04-15T09:21:23.621Z,12.37
2023-04-15T09:23:58.846Z,12.58
2023-04-15T09:26:36.575Z,12.49
2023-04-15T09:29:07.650Z,12.08
2023-04-15T09:31:34.338Z,11.93
2023-04-15T09:34:01.677Z,12.39
2023-04-15T09:39:03.965Z,12.19
2023-04-15T09:41:30.589Z,12.40
2023-04-15T09:43:57.495Z,12.13
2023-04-15T09:46:42.518Z,12.08
2023-04-15T09:49:10.709Z,11.73
2023-04-15T09:51:38.044Z,12.16
2023-04-15T09:54:05.169Z,12.64
2023-04-15T09:56:41.598Z,12.35
2023-04-15T09:59:09.199Z,12.20
2023-04-15T10:01:37.279Z,12.52
2023-04-15T10:04:05.176Z,12.83
2023-04-15T10:06:32.556Z,13.00
2023-04-15T10:08:59.400Z,13.19
2023-04-15T10:11:30.390Z,13.04
2023-04-15T10:13:58.612Z,12.83
2023-04-15T10:16:28.813Z,12.69
2023-04-15T10:18:56.560Z,13.12
2023-04-15T10:21:23.697Z,13.29
2023-04-15T10:23:51.387Z,13.70
2023-04-15T10:26:18.394Z,13.50
2023-04-15T10:28:47.170Z,14.06
2023-04-15T10:31:17.526Z,14.12
2023-04-15T10:33:45.178Z,13.83
2023-04-15T10:36:12.658Z,13.12
2023-04-15T10:38:45.411Z,13.61
2023-04-15T10:41:23.687Z,13.80
2023-04-15T10:43:59.495Z,13.84
2023-04-15T10:46:38.122Z,14.20
2023-04-15T10:49:09.246Z,14.05
2023-04-15T10:54:32.604Z,13.55
2023-04-15T10:57:02.913Z,12.87
2023-04-15T10:59:30.216Z,12.95
2023-04-15T11:02:01.234Z,12.73
2023-04-15T11:04:52.960Z,12.58
2023-04-15T11:07:47.274Z,12.58
2023-04-15T11:10:26.246Z,12.39
2023-04-15T11:13:13.269Z,12.70
2023-04-15T11:15:42.257Z,12.58
2023-04-15T11:18:16.479Z,12.82
2023-04-15T11:20:50.831Z,13.00
2023-04-15T11:23:28.834Z,13.14
2023-04-15T11:25:57.943Z,13.44
2023-04-15T11:28:31.833Z,13.84
2023-04-15T11:31:08.707Z,13.69
2023-04-15T11:33:38.113Z,13.10
2023-04-15T11:36:04.996Z,13.24
2023-04-15T11:38:31.948Z,13.25
2023-04-15T11:41:03.820Z,13.61
2023-04-15T11:43:32.556Z,13.72
2023-04-15T11:46:02.296Z,13.81
2023-04-15T11:48:34.262Z,13.03
2023-04-15T11:51:08.386Z,12.96
2023-04-15T11:53:46.483Z,13.44
2023-04-15T11:59:23.810Z,12.90
2023-04-15T12:01:52.957Z,13.38
2023-04-15T12:04:26.326Z,13.19
2023-04-15T12:06:53.145Z,13.07
2023-04-15T12:09:20.487Z,13.23
2023-04-15T12:11:52.957Z,13.42
2023-04-15T12:14:33.577Z,13.29
2023-04-15T12:17:03.040Z,12.75
2023-04-15T12:19:38.305Z,12.78
2023-04-15T12:22:15.916Z,12.48
2023-04-15T12:24:47.065Z,12.81
2023-04-15T12:27:17.198Z,13.46
2023-04-15T12:29:44.616Z,13.51
2023-04-15T12:32:12.422Z,13.01
2023-04-15T12:34:41.256Z,12.68
2023-04-15T12:37:10.565Z,12.79
2023-04-15T12:39:41.143Z,12.90
2023-04-15T12:42:08.344Z,13.09
2023-04-15T12:44:40.172Z,12.46
2023-04-15T12:47:11.644Z,12.07
2023-04-15T12:49:38.326Z,12.45
2023-04-15T12:52:05.208Z,12.57
2023-04-15T12:54:32.592Z,12.63
2023-04-15T12:57:00.038Z,13.51
2023-04-15T12:59:26.825Z,13.25
2023-04-15T13:01:53.691Z,13.80
2023-04-15T13:04:22.000Z,13.28
2023-04-15T13:06:49.487Z,13.22
2023-04-15T13:09:16.479Z,13.25
2023-04-15T13:11:43.157Z,13.22
2023-04-15T13:14:11.999Z,13.14
2023-04-15T13:16:38.905Z,13.41
2023-04-15T13:19:05.573Z,13.52
2023-04-15T13:21:36.251Z,13.60
2023-04-15T13:24:04.950Z,13.79
2023-04-15T13:26:35.064Z,13.58
2023-04-15T13:29:02.793Z,13.84
2023-04-15T13:31:29.365Z,13.56
2023-04-15T13:33:57.548Z,13.17
2023-04-15T13:36:24.483Z,13.66
2023-04-15T13:38:52.342Z,13.85
2023-04-15T13:41:20.066Z,13.51
2023-04-15T13:43:47.270Z,13.77
2023-04-15T13:46:14.815Z,13.41
2023-04-15T13:48:41.933Z,13.53
2023-04-15T13:51:08.621Z,13.41
2023-04-15T13:53:38.785Z,13.30
2023-04-15T13:56:10.063Z,13.03
2023-04-15T13:58:37.761Z,13.61
2023-04-15T14:01:06.309Z,13.87
2023-04-15T14:03:35.356Z,14.38
2023-04-15T14:06:02.398Z,14.65
2023-04-15T14:08:31.897Z,14.90
2023-04-15T14:11:06.282Z,15.04
2023-04-15T14:13:32.882Z,14.79
2023-04-15T14:15:59.765Z,14.67
2023-04-15T14:18:29.074Z,14.47
2023-04-15T14:20:55.896Z,14.27
2023-04-15T14:23:23.733Z,14.07
2023-04-15T14:25:50.889Z,13.97
2023-04-15T14:28:17.520Z,13.68
2023-04-15T14:33:19.870Z,13.19
2023-04-15T14:35:47.239Z,13.43
2023-04-15T14:38:14.283Z,13.52
2023-04-15T14:40:42.324Z,13.46
2023-04-15T14:43:08.941Z,13.48
2023-04-15T14:48:12.697Z,12.62
2023-04-15T14:50:40.649Z,12.67
2023-04-15T14:53:07.279Z,12.84
2023-04-15T14:55:33.881Z,12.42
2023-04-15T14:58:02.236Z,12.39
2023-04-15T15:00:28.780Z,12.56
2023-04-15T15:02:55.549Z,12.90
2023-04-15T15:05:44.104Z,12.81
2023-04-15T15:08:11.133Z,12.73
2023-04-15T15:10:48.275Z,12.68
2023-04-15T15:13:23.431Z,12.76
2023-04-15T15:24:39.481Z,12.84
2023-04-15T15:27:08.994Z,12.71
2023-04-15T15:29:35.739Z,12.70
2023-04-15T15:32:02.314Z,12.38
2023-04-15T15:37:11.583Z,12.77
2023-04-15T15:39:46.773Z,12.90
2023-04-15T15:42:13.343Z,12.47
2023-04-15T15:44:39.939Z,12.54
2023-04-15T15:47:06.952Z,12.65
2023-04-15T15:52:08.979Z,12.93
2023-04-15T15:54:37.848Z,12.57
2023-04-15T15:57:04.576Z,12.25
2023-04-15T15:59:33.202Z,12.65
2023-04-15T16:02:11.568Z,12.46
2023-04-15T16:04:39.294Z,12.66
2023-04-15T16:07:06.490Z,12.94
2023-04-15T16:09:33.561Z,12.76
2023-04-15T16:12:04.040Z,12.71
2023-04-15T16:14:30.660Z,12.12
2023-04-15T16:17:00.364Z,12.31
2023-04-15T16:19:26.980Z,12.03
2023-04-15T16:21:54.133Z,11.86
2023-04-15T16:24:25.888Z,12.19
2023-04-15T16:26:52.563Z,11.83
2023-04-15T16:29:19.229Z,11.89
2023-04-15T16:31:47.471Z,12.04
2023-04-15T16:34:15.874Z,12.48
2023-04-15T16:36:42.767Z,12.88
2023-04-15T16:39:09.499Z,12.94
2023-04-15T16:41:36.440Z,12.93
2023-04-15T16:44:03.396Z,13.01
2023-04-15T16:46:30.982Z,12.94
2023-04-15T16:48:57.814Z,12.82
2023-04-15T16:51:24.432Z,12.79
2023-04-15T16:53:51.140Z,12.62
2023-04-15T16:56:17.818Z,12.58
2023-04-15T16:58:44.406Z,12.78
2023-04-15T17:01:11.135Z,12.78
2023-04-15T17:03:38.792Z,12.97
2023-04-15T17:06:05.689Z,13.04
2023-04-15T17:08:32.391Z,12.91
2023-04-15T17:10:59.023Z,12.67
2023-04-15T17:13:26.436Z,12.72
2023-04-15T17:15:55.140Z,12.79
2023-04-15T17:18:22.343Z,12.90
2023-04-15T17:20:49.051Z,12.81
2023-04-15T17:23:16.161Z,12.79
2023-04-15T17:25:45.843Z,12.88
2023-04-15T17:28:12.475Z,12.81
2023-04-15T17:30:39.297Z,12.80
2023-04-15T17:33:56.099Z,12.86
2023-04-15T17:35:53.274Z,12.93
2023-04-15T17:38:20.563Z,12.93
2023-04-15T17:40:47.147Z,12.99
2023-04-15T17:43:13.693Z,12.97
2023-04-15T17:45:40.397Z,12.95
2023-04-15T17:48:07.198Z,12.92
2023-04-15T17:50:34.119Z,12.87
2023-04-15T17:53:00.776Z,12.89
2023-04-15T17:55:27.418Z,12.86
2023-04-15T17:57:54.214Z,12.78
2023-04-15T18:00:20.966Z,12.52
2023-04-15T18:02:48.758Z,12.39
2023-04-15T18:05:15.798Z,12.16
2023-04-15T18:07:42.493Z,11.94
2023-04-15T18:10:09.484Z,11.90
2023-04-15T18:12:36.015Z,12.12
2023-04-15T18:15:02.686Z,12.10
2023-04-15T18:17:29.554Z,12.14
2023-04-15T18:19:56.302Z,12.20
2023-04-15T18:22:22.872Z,12.21
2023-04-15T18:24:52.429Z,12.21
2023-04-15T18:27:19.150Z,12.25
2023-04-15T18:29:45.763Z,12.25
2023-04-15T18:32:12.405Z,12.27
2023-04-15T18:34:39.363Z,12.22
2023-04-15T18:37:06.414Z,12.23
2023-04-15T18:39:33.114Z,12.19
2023-04-15T18:41:59.785Z,12.15
2023-04-15T18:44:26.485Z,12.09
2023-04-15T18:46:53.124Z,12.01
2023-04-15T18:49:19.887Z,12.03
2023-04-15T18:51:46.508Z,11.90
2023-04-15T18:54:13.218Z,11.83
2023-04-15T18:56:40.100Z,11.71
2023-04-15T18:59:20.792Z,11.65
2023-04-15T19:01:53.448Z,11.42
2023-04-15T19:04:20.463Z,11.22
2023-04-15T19:06:47.698Z,11.22
2023-04-15T19:09:15.756Z,11.19
2023-04-15T19:11:43.720Z,10.98
2023-04-15T19:14:11.013Z,10.67
2023-04-15T19:16:37.808Z,10.61
2023-04-15T19:19:06.601Z,10.74
2023-04-15T19:21:34.010Z,10.68
2023-04-15T19:24:00.883Z,10.73
2023-04-15T19:26:27.614Z,10.73
2023-04-15T19:28:56.491Z,10.67
2023-04-15T19:31:23.226Z,10.76
2023-04-15T19:33:50.000Z,10.68
2023-04-15T19:36:18.178Z,10.50
2023-04-15T19:38:44.832Z,10.53
2023-04-15T19:41:11.422Z,10.57
2023-04-15T19:43:38.176Z,10.59
2023-04-15T19:46:04.768Z,10.55
2023-04-15T19:48:31.340Z,10.53
2023-04-15T19:50:58.114Z,10.71
2023-04-15T19:53:25.862Z,10.66
2023-04-15T19:55:52.452Z,10.49
2023-04-15T19:58:19.037Z,10.68
2023-04-15T20:00:45.626Z,10.65
2023-04-15T20:03:13.797Z,10.74
2023-04-15T20:05:40.531Z,10.71
2023-04-15T20:08:07.177Z,10.57
2023-04-15T20:10:33.921Z,10.52
2023-04-15T20:13:00.746Z,10.55
2023-04-15T20:15:27.585Z,10.69
2023-04-15T20:17:57.560Z,10.80
2023-04-15T20:42:35.068Z,10.61
2023-04-15T20:45:02.312Z,10.69
2023-04-15T20:47:31.547Z,10.78
2023-04-15T20:49:58.321Z,10.76
2023-04-15T20:52:24.889Z,10.78
2023-04-15T20:54:51.620Z,10.80
2023-04-15T20:57:18.346Z,10.87
2023-04-15T20:59:44.985Z,10.87
2023-04-15T21:02:11.889Z,10.77
2023-04-15T21:04:38.909Z,10.83
2023-04-15T21:07:05.643Z,10.86
2023-04-15T21:09:33.369Z,10.86
2023-04-15T21:12:01.971Z,10.90
2023-04-15T21:14:29.273Z,10.95
2023-04-15T21:16:58.074Z,11.01
2023-04-15T21:19:24.701Z,11.03
2023-04-15T21:21:52.396Z,11.05
2023-04-15T21:24:19.019Z,11.08
2023-04-15T21:26:45.591Z,11.10
2023-04-15T21:29:12.501Z,11.05
2023-04-15T21:31:40.225Z,10.99
2023-04-15T21:34:07.115Z,10.89
2023-04-15T21:36:33.968Z,10.83
2023-04-15T21:39:00.882Z,10.90
2023-04-15T21:41:28.228Z,10.80
2023-04-15T21:43:54.880Z,10.59
2023-04-15T21:46:25.356Z,10.73
2023-04-15T21:48:53.898Z,10.83
2023-04-15T21:51:20.899Z,10.90
2023-04-15T21:53:47.738Z,10.86
2023-04-15T21:56:14.390Z,10.82
2023-04-15T21:58:41.041Z,10.84
2023-04-15T22:01:07.949Z,10.76
2023-04-15T22:03:35.292Z,10.52
2023-04-15T22:06:05.157Z,10.44
2023-04-15T22:08:41.287Z,10.40
2023-04-15T22:11:27.864Z,10.39
2023-04-15T22:13:56.680Z,10.45
2023-04-15T22:16:24.506Z,10.47
2023-04-15T22:19:10.305Z,10.39
2023-04-15T22:21:36.889Z,10.44
2023-04-15T22:24:39.176Z,10.42
2023-04-15T22:26:50.645Z,10.44
2023-04-15T22:29:18.389Z,10.41
2023-04-15T22:31:45.063Z,10.45
2023-04-15T22:34:11.992Z,10.36
2023-04-15T22:36:38.685Z,10.46
2023-04-15T22:39:05.940Z,10.51
2023-04-15T22:47:45.718Z,10.27
2023-04-15T22:50:12.742Z,10.36
2023-04-15T22:52:39.346Z,10.38
2023-04-15T22:55:06.902Z,10.31
2023-04-15T22:57:33.730Z,10.08
2023-04-15T23:00:00.650Z,9.93
2023-04-15T23:02:27.653Z,10.13
2023-04-15T23:04:54.513Z,10.15
2023-04-15T23:07:21.173Z,10.23
2023-04-15T23:09:47.813Z,10.37
2023-04-15T23:12:14.861Z,10.38
2023-04-15T23:14:45.219Z,10.37
2023-04-15T23:17:11.905Z,10.44
2023-04-15T23:19:41.312Z,10.43
2023-04-15T23:22:10.728Z,10.42
2023-04-15T23:24:37.618Z,10.44
2023-04-15T23:27:04.168Z,10.45
2023-04-15T23:29:30.764Z,10.62
2023-04-15T23:31:57.602Z,10.56
2023-04-15T23:34:24.159Z,10.44
2023-04-15T23:36:50.761Z,10.45
2023-04-15T23:39:17.501Z,10.34
2023-04-15T23:41:44.077Z,10.34
2023-04-15T23:44:10.755Z,10.44
2023-04-15T23:46:40.652Z,10.45
2023-04-15T23:49:07.492Z,10.38
2023-04-15T23:51:34.294Z,10.36
2023-04-15T23:54:00.856Z,10.06
2023-04-15T23:56:27.457Z,10.18
2023-04-15T23:59:00.483Z,10.27
